sensor_id;sensor_type;location;lat;lon;timestamp;P1;durP1;ratioP1;P2;durP2;ratioP2
1174;SDS011;576;48.418;10.074;2023-03-31T00:01:55;1.30;;;1.20;;
1174;SDS011;576;48.418;10.074;2023-03-31T00:04:23;2.23;;;1.70;;
1174;SDS011;576;48.418;10.074;2023-03-31T00:06:52;1.70;;;1.60;;
1174;SDS011;576;48.418;10.074;2023-03-31T00:09:22;3.47;;;1.40;;
1174;SDS011;576;48.418;10.074;2023-03-31T00:11:50;2.07;;;1.53;;
1174;SDS011;576;48.418;10.074;2023-03-31T00:14:19;2.00;;;1.40;;
1174;SDS011;576;48.418;10.074;2023-03-31T00:16:47;1.30;;;1.20;;
1174;SDS011;576;48.418;10.074;2023-03-31T00:19:15;1.50;;;1.33;;
1174;SDS011;576;48.418;10.074;2023-03-31T00:21:47;1.37;;;1.27;;
1174;SDS011;576;48.418;10.074;2023-03-31T00:24:16;3.07;;;2.10;;
1174;SDS011;576;48.418;10.074;2023-03-31T00:26:46;4.37;;;2.00;;
1174;SDS011;576;48.418;10.074;2023-03-31T00:29:16;1.93;;;1.40;;
1174;SDS011;576;48.418;10.074;2023-03-31T00:31:44;1.67;;;1.57;;
1174;SDS011;576;48.418;10.074;2023-03-31T00:34:12;2.00;;;1.90;;
1174;SDS011;576;48.418;10.074;2023-03-31T00:36:40;2.60;;;1.30;;
1174;SDS011;576;48.418;10.074;2023-03-31T00:39:13;1.70;;;1.20;;
1174;SDS011;576;48.418;10.074;2023-03-31T00:41:43;2.40;;;1.63;;
1174;SDS011;576;48.418;10.074;2023-03-31T00:44:14;2.53;;;1.80;;
1174;SDS011;576;48.418;10.074;2023-03-31T00:46:45;1.30;;;1.20;;
1174;SDS011;576;48.418;10.074;2023-03-31T00:49:20;1.30;;;1.20;;
1174;SDS011;576;48.418;10.074;2023-03-31T00:51:54;1.27;;;1.17;;
1174;SDS011;576;48.418;10.074;2023-03-31T00:54:28;2.20;;;1.50;;
1174;SDS011;576;48.418;10.074;2023-03-31T00:56:59;2.47;;;1.30;;
1174;SDS011;576;48.418;10.074;2023-03-31T00:59:30;1.87;;;1.27;;
1174;SDS011;576;48.418;10.074;2023-03-31T01:02:03;1.77;;;1.63;;
1174;SDS011;576;48.418;10.074;2023-03-31T01:04:32;2.20;;;1.23;;
1174;SDS011;576;48.418;10.074;2023-03-31T01:07:04;1.37;;;1.30;;
1174;SDS011;576;48.418;10.074;2023-03-31T01:09:37;1.50;;;1.40;;
1174;SDS011;576;48.418;10.074;2023-03-31T01:12:07;1.20;;;1.10;;
1174;SDS011;576;48.418;10.074;2023-03-31T01:14:38;1.50;;;1.40;;
1174;SDS011;576;48.418;10.074;2023-03-31T01:17:07;1.77;;;1.30;;
1174;SDS011;576;48.418;10.074;2023-03-31T01:19:41;1.43;;;1.30;;
1174;SDS011;576;48.418;10.074;2023-03-31T01:22:27;4.37;;;1.57;;
1174;SDS011;576;48.418;10.074;2023-03-31T01:28:25;1.40;;;1.30;;
1174;SDS011;576;48.418;10.074;2023-03-31T01:31:07;1.50;;;1.40;;
1174;SDS011;576;48.418;10.074;2023-03-31T01:34:11;1.50;;;1.30;;
1174;SDS011;576;48.418;10.074;2023-03-31T01:37:12;2.77;;;1.60;;
1174;SDS011;576;48.418;10.074;2023-03-31T01:40:22;2.43;;;1.80;;
1174;SDS011;576;48.418;10.074;2023-03-31T01:43:03;1.20;;;1.20;;
1174;SDS011;576;48.418;10.074;2023-03-31T01:45:43;1.70;;;1.50;;
1174;SDS011;576;48.418;10.074;2023-03-31T01:48:20;1.43;;;1.33;;
1174;SDS011;576;48.418;10.074;2023-03-31T01:50:56;1.30;;;1.03;;
1174;SDS011;576;48.418;10.074;2023-03-31T01:53:29;1.40;;;1.30;;
1174;SDS011;576;48.418;10.074;2023-03-31T01:56:04;1.77;;;1.57;;
1174;SDS011;576;48.418;10.074;2023-03-31T01:58:37;1.13;;;1.13;;
1174;SDS011;576;48.418;10.074;2023-03-31T02:01:10;1.23;;;1.13;;
1174;SDS011;576;48.418;10.074;2023-03-31T02:03:44;1.20;;;1.10;;
1174;SDS011;576;48.418;10.074;2023-03-31T02:06:17;1.57;;;1.47;;
1174;SDS011;576;48.418;10.074;2023-03-31T02:08:50;2.40;;;1.97;;
1174;SDS011;576;48.418;10.074;2023-03-31T02:11:24;1.60;;;1.50;;
1174;SDS011;576;48.418;10.074;2023-03-31T02:13:54;1.90;;;1.37;;
1174;SDS011;576;48.418;10.074;2023-03-31T02:16:27;1.80;;;1.50;;
1174;SDS011;576;48.418;10.074;2023-03-31T02:19:00;1.43;;;1.33;;
1174;SDS011;576;48.418;10.074;2023-03-31T02:21:31;1.47;;;1.37;;
1174;SDS011;576;48.418;10.074;2023-03-31T02:24:04;1.97;;;1.37;;
1174;SDS011;576;48.418;10.074;2023-03-31T02:26:39;4.80;;;1.80;;
1174;SDS011;576;48.418;10.074;2023-03-31T02:29:11;1.50;;;1.40;;
1174;SDS011;576;48.418;10.074;2023-03-31T02:31:41;2.17;;;1.67;;
1174;SDS011;576;48.418;10.074;2023-03-31T02:34:14;1.37;;;1.27;;
1174;SDS011;576;48.418;10.074;2023-03-31T02:36:42;1.93;;;1.83;;
1174;SDS011;576;48.418;10.074;2023-03-31T02:39:14;2.00;;;1.80;;
1174;SDS011;576;48.418;10.074;2023-03-31T02:41:47;1.20;;;1.20;;
1174;SDS011;576;48.418;10.074;2023-03-31T02:44:18;3.13;;;1.37;;
1174;SDS011;576;48.418;10.074;2023-03-31T02:46:47;1.57;;;1.47;;
1174;SDS011;576;48.418;10.074;2023-03-31T02:49:16;1.77;;;1.63;;
1174;SDS011;576;48.418;10.074;2023-03-31T02:52:02;2.40;;;1.40;;
1174;SDS011;576;48.418;10.074;2023-03-31T02:54:46;1.80;;;1.70;;
1174;SDS011;576;48.418;10.074;2023-03-31T02:57:38;1.53;;;1.43;;
1174;SDS011;576;48.418;10.074;2023-03-31T03:00:32;1.40;;;1.30;;
1174;SDS011;576;48.418;10.074;2023-03-31T03:03:12;1.80;;;1.70;;
1174;SDS011;576;48.418;10.074;2023-03-31T03:05:49;1.80;;;1.60;;
1174;SDS011;576;48.418;10.074;2023-03-31T03:08:33;1.60;;;1.50;;
1174;SDS011;576;48.418;10.074;2023-03-31T03:11:11;1.53;;;1.43;;
1174;SDS011;576;48.418;10.074;2023-03-31T03:13:45;1.20;;;1.20;;
1174;SDS011;576;48.418;10.074;2023-03-31T03:16:18;1.60;;;1.50;;
1174;SDS011;576;48.418;10.074;2023-03-31T03:18:55;4.80;;;1.70;;
1174;SDS011;576;48.418;10.074;2023-03-31T03:21:25;1.87;;;1.60;;
1174;SDS011;576;48.418;10.074;2023-03-31T03:23:53;1.23;;;1.10;;
1174;SDS011;576;48.418;10.074;2023-03-31T03:26:22;1.20;;;1.17;;
1174;SDS011;576;48.418;10.074;2023-03-31T03:28:54;1.50;;;1.40;;
1174;SDS011;576;48.418;10.074;2023-03-31T03:31:23;3.13;;;1.10;;
1174;SDS011;576;48.418;10.074;2023-03-31T03:33:52;2.00;;;1.57;;
1174;SDS011;576;48.418;10.074;2023-03-31T03:36:21;2.60;;;1.43;;
1174;SDS011;576;48.418;10.074;2023-03-31T03:38:51;1.60;;;1.50;;
1174;SDS011;576;48.418;10.074;2023-03-31T03:41:19;1.17;;;1.07;;
1174;SDS011;576;48.418;10.074;2023-03-31T03:43:48;3.10;;;1.43;;
1174;SDS011;576;48.418;10.074;2023-03-31T03:46:17;2.50;;;1.53;;
1174;SDS011;576;48.418;10.074;2023-03-31T03:48:45;1.50;;;1.37;;
1174;SDS011;576;48.418;10.074;2023-03-31T03:51:13;1.93;;;1.73;;
1174;SDS011;576;48.418;10.074;2023-03-31T03:53:41;1.60;;;1.50;;
1174;SDS011;576;48.418;10.074;2023-03-31T03:56:10;2.67;;;1.70;;
1174;SDS011;576;48.418;10.074;2023-03-31T03:58:38;1.40;;;1.30;;
1174;SDS011;576;48.418;10.074;2023-03-31T04:01:06;1.10;;;1.10;;
1174;SDS011;576;48.418;10.074;2023-03-31T04:03:35;2.37;;;1.87;;
1174;SDS011;576;48.418;10.074;2023-03-31T04:06:04;2.90;;;2.00;;
1174;SDS011;576;48.418;10.074;2023-03-31T04:08:33;5.07;;;2.33;;
1174;SDS011;576;48.418;10.074;2023-03-31T04:11:02;1.30;;;1.20;;
1174;SDS011;576;48.418;10.074;2023-03-31T04:13:44;1.70;;;1.60;;
1174;SDS011;576;48.418;10.074;2023-03-31T04:16:13;1.40;;;1.30;;
1174;SDS011;576;48.418;10.074;2023-03-31T04:18:43;1.40;;;1.30;;
1174;SDS011;576;48.418;10.074;2023-03-31T04:21:12;2.00;;;1.80;;
1174;SDS011;576;48.418;10.074;2023-03-31T04:23:51;1.40;;;1.40;;
1174;SDS011;576;48.418;10.074;2023-03-31T04:26:28;1.10;;;1.10;;
1174;SDS011;576;48.418;10.074;2023-03-31T04:29:04;1.33;;;1.23;;
1174;SDS011;576;48.418;10.074;2023-03-31T04:31:33;2.40;;;1.60;;
1174;SDS011;576;48.418;10.074;2023-03-31T04:34:05;1.80;;;1.70;;
1174;SDS011;576;48.418;10.074;2023-03-31T04:36:38;1.57;;;1.47;;
1174;SDS011;576;48.418;10.074;2023-03-31T04:39:13;2.07;;;1.90;;
1174;SDS011;576;48.418;10.074;2023-03-31T04:41:43;2.43;;;1.53;;
1174;SDS011;576;48.418;10.074;2023-03-31T04:44:11;1.47;;;1.30;;
1174;SDS011;576;48.418;10.074;2023-03-31T04:46:39;1.63;;;1.53;;
1174;SDS011;576;48.418;10.074;2023-03-31T04:49:09;1.50;;;1.40;;
1174;SDS011;576;48.418;10.074;2023-03-31T04:51:37;2.53;;;1.47;;
1174;SDS011;576;48.418;10.074;2023-03-31T04:54:05;2.07;;;1.70;;
1174;SDS011;576;48.418;10.074;2023-03-31T04:56:33;2.63;;;2.33;;
1174;SDS011;576;48.418;10.074;2023-03-31T04:59:01;1.60;;;1.20;;
1174;SDS011;576;48.418;10.074;2023-03-31T05:01:30;1.50;;;1.40;;
1174;SDS011;576;48.418;10.074;2023-03-31T05:04:02;1.67;;;1.47;;
1174;SDS011;576;48.418;10.074;2023-03-31T05:06:32;1.70;;;1.60;;
1174;SDS011;576;48.418;10.074;2023-03-31T05:09:00;2.20;;;1.50;;
1174;SDS011;576;48.418;10.074;2023-03-31T05:11:28;1.70;;;1.60;;
1174;SDS011;576;48.418;10.074;2023-03-31T05:13:57;2.63;;;1.40;;
1174;SDS011;576;48.418;10.074;2023-03-31T05:16:25;2.57;;;1.80;;
1174;SDS011;576;48.418;10.074;2023-03-31T05:18:53;1.97;;;1.80;;
1174;SDS011;576;48.418;10.074;2023-03-31T05:21:21;1.93;;;1.50;;
1174;SDS011;576;48.418;10.074;2023-03-31T05:23:53;1.57;;;1.47;;
1174;SDS011;576;48.418;10.074;2023-03-31T05:26:21;2.23;;;2.13;;
1174;SDS011;576;48.418;10.074;2023-03-31T05:28:50;1.57;;;1.47;;
1174;SDS011;576;48.418;10.074;2023-03-31T05:31:19;2.50;;;1.87;;
1174;SDS011;576;48.418;10.074;2023-03-31T05:33:47;3.03;;;1.63;;
1174;SDS011;576;48.418;10.074;2023-03-31T05:36:16;1.80;;;1.70;;
1174;SDS011;576;48.418;10.074;2023-03-31T05:38:44;2.43;;;1.80;;
1174;SDS011;576;48.418;10.074;2023-03-31T05:41:14;5.63;;;1.73;;
1174;SDS011;576;48.418;10.074;2023-03-31T05:43:42;2.37;;;1.40;;
1174;SDS011;576;48.418;10.074;2023-03-31T05:46:11;3.77;;;1.90;;
1174;SDS011;576;48.418;10.074;2023-03-31T05:48:40;3.03;;;2.00;;
1174;SDS011;576;48.418;10.074;2023-03-31T05:51:08;1.43;;;1.30;;
1174;SDS011;576;48.418;10.074;2023-03-31T05:53:36;2.00;;;1.90;;
1174;SDS011;576;48.418;10.074;2023-03-31T05:56:05;4.37;;;1.90;;
1174;SDS011;576;48.418;10.074;2023-03-31T05:58:35;2.20;;;1.80;;
1174;SDS011;576;48.418;10.074;2023-03-31T06:01:04;3.70;;;1.97;;
1174;SDS011;576;48.418;10.074;2023-03-31T06:03:35;2.60;;;1.73;;
1174;SDS011;576;48.418;10.074;2023-03-31T06:06:07;4.47;;;2.97;;
1174;SDS011;576;48.418;10.074;2023-03-31T06:08:35;3.07;;;1.93;;
1174;SDS011;576;48.418;10.074;2023-03-31T06:11:04;2.63;;;1.63;;
1174;SDS011;576;48.418;10.074;2023-03-31T06:13:34;1.83;;;1.70;;
1174;SDS011;576;48.418;10.074;2023-03-31T06:16:03;9.00;;;2.10;;
1174;SDS011;576;48.418;10.074;2023-03-31T06:18:33;3.60;;;2.07;;
1174;SDS011;576;48.418;10.074;2023-03-31T06:21:02;5.13;;;1.73;;
1174;SDS011;576;48.418;10.074;2023-03-31T06:23:31;3.73;;;2.03;;
1174;SDS011;576;48.418;10.074;2023-03-31T06:26:00;1.97;;;1.80;;
1174;SDS011;576;48.418;10.074;2023-03-31T06:28:31;5.87;;;2.37;;
1174;SDS011;576;48.418;10.074;2023-03-31T06:31:04;2.83;;;1.80;;
1174;SDS011;576;48.418;10.074;2023-03-31T06:33:34;2.93;;;1.80;;
1174;SDS011;576;48.418;10.074;2023-03-31T06:36:02;1.80;;;1.70;;
1174;SDS011;576;48.418;10.074;2023-03-31T06:38:32;3.23;;;1.90;;
1174;SDS011;576;48.418;10.074;2023-03-31T06:41:01;2.30;;;2.10;;
1174;SDS011;576;48.418;10.074;2023-03-31T06:43:30;4.50;;;2.40;;
1174;SDS011;576;48.418;10.074;2023-03-31T06:45:58;4.93;;;2.00;;
1174;SDS011;576;48.418;10.074;2023-03-31T06:48:28;3.70;;;1.83;;
1174;SDS011;576;48.418;10.074;2023-03-31T06:50:59;2.57;;;2.37;;
1174;SDS011;576;48.418;10.074;2023-03-31T06:53:29;3.07;;;1.87;;
1174;SDS011;576;48.418;10.074;2023-03-31T06:55:58;4.30;;;2.60;;
1174;SDS011;576;48.418;10.074;2023-03-31T06:58:27;2.50;;;2.30;;
1174;SDS011;576;48.418;10.074;2023-03-31T07:00:57;1.80;;;1.70;;
1174;SDS011;576;48.418;10.074;2023-03-31T07:03:25;1.77;;;1.67;;
1174;SDS011;576;48.418;10.074;2023-03-31T07:05:55;3.03;;;1.73;;
1174;SDS011;576;48.418;10.074;2023-03-31T07:08:24;3.00;;;2.20;;
1174;SDS011;576;48.418;10.074;2023-03-31T07:10:53;2.60;;;2.27;;
1174;SDS011;576;48.418;10.074;2023-03-31T07:13:23;3.27;;;1.90;;
1174;SDS011;576;48.418;10.074;2023-03-31T07:15:52;2.43;;;1.97;;
1174;SDS011;576;48.418;10.074;2023-03-31T07:18:22;2.37;;;1.90;;
1174;SDS011;576;48.418;10.074;2023-03-31T07:21:02;2.27;;;2.00;;
1174;SDS011;576;48.418;10.074;2023-03-31T07:23:35;2.63;;;2.10;;
1174;SDS011;576;48.418;10.074;2023-03-31T07:26:04;2.47;;;2.27;;
1174;SDS011;576;48.418;10.074;2023-03-31T07:28:32;2.00;;;1.90;;
1174;SDS011;576;48.418;10.074;2023-03-31T07:31:09;3.63;;;2.20;;
1174;SDS011;576;48.418;10.074;2023-03-31T07:33:38;2.67;;;1.90;;
1174;SDS011;576;48.418;10.074;2023-03-31T07:36:08;1.67;;;1.57;;
1174;SDS011;576;48.418;10.074;2023-03-31T07:38:40;4.90;;;2.33;;
1174;SDS011;576;48.418;10.074;2023-03-31T07:41:09;2.90;;;2.57;;
1174;SDS011;576;48.418;10.074;2023-03-31T07:43:39;2.70;;;2.00;;
1174;SDS011;576;48.418;10.074;2023-03-31T07:46:12;2.20;;;2.10;;
1174;SDS011;576;48.418;10.074;2023-03-31T07:48:45;5.97;;;2.37;;
1174;SDS011;576;48.418;10.074;2023-03-31T07:51:16;2.83;;;2.40;;
1174;SDS011;576;48.418;10.074;2023-03-31T07:53:46;3.00;;;2.00;;
1174;SDS011;576;48.418;10.074;2023-03-31T07:56:17;3.20;;;2.67;;
1174;SDS011;576;48.418;10.074;2023-03-31T07:58:46;2.50;;;2.30;;
1174;SDS011;576;48.418;10.074;2023-03-31T08:01:15;3.10;;;2.10;;
1174;SDS011;576;48.418;10.074;2023-03-31T08:03:45;2.97;;;2.70;;
1174;SDS011;576;48.418;10.074;2023-03-31T08:06:19;2.40;;;2.20;;
1174;SDS011;576;48.418;10.074;2023-03-31T08:08:48;3.20;;;2.90;;
1174;SDS011;576;48.418;10.074;2023-03-31T08:11:17;2.03;;;1.93;;
1174;SDS011;576;48.418;10.074;2023-03-31T08:13:46;4.07;;;2.60;;
1174;SDS011;576;48.418;10.074;2023-03-31T08:16:15;5.50;;;2.43;;
1174;SDS011;576;48.418;10.074;2023-03-31T08:18:43;2.80;;;2.37;;
1174;SDS011;576;48.418;10.074;2023-03-31T08:21:11;2.67;;;2.37;;
1174;SDS011;576;48.418;10.074;2023-03-31T08:23:41;2.70;;;2.50;;
1174;SDS011;576;48.418;10.074;2023-03-31T08:26:10;2.47;;;1.93;;
1174;SDS011;576;48.418;10.074;2023-03-31T08:28:43;2.30;;;2.17;;
1174;SDS011;576;48.418;10.074;2023-03-31T08:31:11;2.90;;;2.40;;
1174;SDS011;576;48.418;10.074;2023-03-31T08:33:44;4.20;;;2.27;;
1174;SDS011;576;48.418;10.074;2023-03-31T08:36:12;2.97;;;1.97;;
1174;SDS011;576;48.418;10.074;2023-03-31T08:38:42;2.43;;;2.23;;
1174;SDS011;576;48.418;10.074;2023-03-31T08:41:19;2.77;;;1.90;;
1174;SDS011;576;48.418;10.074;2023-03-31T08:44:09;3.50;;;2.47;;
1174;SDS011;576;48.418;10.074;2023-03-31T08:46:41;2.93;;;2.17;;
1174;SDS011;576;48.418;10.074;2023-03-31T08:49:12;3.23;;;2.10;;
1174;SDS011;576;48.418;10.074;2023-03-31T08:51:42;3.70;;;2.37;;
1174;SDS011;576;48.418;10.074;2023-03-31T08:54:18;7.50;;;2.40;;
1174;SDS011;576;48.418;10.074;2023-03-31T08:56:52;2.40;;;2.20;;
1174;SDS011;576;48.418;10.074;2023-03-31T08:59:23;3.00;;;2.27;;
1174;SDS011;576;48.418;10.074;2023-03-31T09:01:55;3.20;;;2.80;;
1174;SDS011;576;48.418;10.074;2023-03-31T09:04:35;2.50;;;2.40;;
1174;SDS011;576;48.418;10.074;2023-03-31T09:07:27;2.10;;;2.00;;
1174;SDS011;576;48.418;10.074;2023-03-31T09:10:05;2.30;;;2.00;;
1174;SDS011;576;48.418;10.074;2023-03-31T09:12:47;2.03;;;1.90;;
1174;SDS011;576;48.418;10.074;2023-03-31T09:15:23;2.03;;;1.83;;
1174;SDS011;576;48.418;10.074;2023-03-31T09:17:54;1.97;;;1.87;;
1174;SDS011;576;48.418;10.074;2023-03-31T09:20:30;2.23;;;2.03;;
1174;SDS011;576;48.418;10.074;2023-03-31T09:23:02;2.87;;;2.50;;
1174;SDS011;576;48.418;10.074;2023-03-31T09:25:39;2.83;;;2.00;;
1174;SDS011;576;48.418;10.074;2023-03-31T09:28:11;1.67;;;1.57;;
1174;SDS011;576;48.418;10.074;2023-03-31T09:30:45;2.10;;;2.00;;
1174;SDS011;576;48.418;10.074;2023-03-31T09:33:16;2.10;;;1.90;;
1174;SDS011;576;48.418;10.074;2023-03-31T09:35:46;2.70;;;1.93;;
1174;SDS011;576;48.418;10.074;2023-03-31T09:38:17;1.90;;;1.80;;
1174;SDS011;576;48.418;10.074;2023-03-31T09:40:47;2.30;;;1.90;;
1174;SDS011;576;48.418;10.074;2023-03-31T09:43:17;2.63;;;2.03;;
1174;SDS011;576;48.418;10.074;2023-03-31T09:45:48;3.60;;;1.83;;
1174;SDS011;576;48.418;10.074;2023-03-31T09:48:34;2.10;;;1.90;;
1174;SDS011;576;48.418;10.074;2023-03-31T09:51:05;2.33;;;2.10;;
1174;SDS011;576;48.418;10.074;2023-03-31T09:53:42;1.80;;;1.70;;
1174;SDS011;576;48.418;10.074;2023-03-31T09:56:30;1.93;;;1.80;;
1174;SDS011;576;48.418;10.074;2023-03-31T09:59:01;1.90;;;1.80;;
1174;SDS011;576;48.418;10.074;2023-03-31T10:01:30;1.67;;;1.57;;
1174;SDS011;576;48.418;10.074;2023-03-31T10:03:58;2.10;;;1.70;;
1174;SDS011;576;48.418;10.074;2023-03-31T10:06:30;1.80;;;1.70;;
1174;SDS011;576;48.418;10.074;2023-03-31T10:09:00;2.07;;;1.87;;
1174;SDS011;576;48.418;10.074;2023-03-31T10:11:31;3.80;;;1.83;;
1174;SDS011;576;48.418;10.074;2023-03-31T10:14:00;1.70;;;1.60;;
1174;SDS011;576;48.418;10.074;2023-03-31T10:16:31;1.40;;;1.30;;
1174;SDS011;576;48.418;10.074;2023-03-31T10:19:11;1.73;;;1.63;;
1174;SDS011;576;48.418;10.074;2023-03-31T10:21:44;2.03;;;1.93;;
1174;SDS011;576;48.418;10.074;2023-03-31T10:24:17;2.60;;;2.03;;
1174;SDS011;576;48.418;10.074;2023-03-31T10:26:48;2.00;;;1.80;;
1174;SDS011;576;48.418;10.074;2023-03-31T10:29:28;2.20;;;1.67;;
1174;SDS011;576;48.418;10.074;2023-03-31T10:32:01;1.60;;;1.50;;
1174;SDS011;576;48.418;10.074;2023-03-31T10:34:39;2.83;;;1.77;;
1174;SDS011;576;48.418;10.074;2023-03-31T10:37:10;2.30;;;1.73;;
1174;SDS011;576;48.418;10.074;2023-03-31T10:39:44;2.03;;;1.90;;
1174;SDS011;576;48.418;10.074;2023-03-31T10:42:19;4.87;;;2.17;;
1174;SDS011;576;48.418;10.074;2023-03-31T10:44:49;1.70;;;1.60;;
1174;SDS011;576;48.418;10.074;2023-03-31T10:47:18;1.53;;;1.43;;
1174;SDS011;576;48.418;10.074;2023-03-31T10:49:48;1.70;;;1.60;;
1174;SDS011;576;48.418;10.074;2023-03-31T10:52:23;2.00;;;1.50;;
1174;SDS011;576;48.418;10.074;2023-03-31T10:54:55;1.87;;;1.70;;
1174;SDS011;576;48.418;10.074;2023-03-31T10:57:28;2.00;;;1.50;;
1174;SDS011;576;48.418;10.074;2023-03-31T11:00:15;1.60;;;1.50;;
1174;SDS011;576;48.418;10.074;2023-03-31T11:02:58;3.17;;;1.93;;
1174;SDS011;576;48.418;10.074;2023-03-31T11:05:42;2.30;;;1.37;;
1174;SDS011;576;48.418;10.074;2023-03-31T11:08:22;1.60;;;1.40;;
1174;SDS011;576;48.418;10.074;2023-03-31T11:11:02;1.50;;;1.40;;
1174;SDS011;576;48.418;10.074;2023-03-31T11:13:43;6.63;;;1.87;;
1174;SDS011;576;48.418;10.074;2023-03-31T11:16:20;2.20;;;1.87;;
1174;SDS011;576;48.418;10.074;2023-03-31T11:19:03;5.00;;;2.20;;
1174;SDS011;576;48.418;10.074;2023-03-31T11:21:41;2.90;;;1.57;;
1174;SDS011;576;48.418;10.074;2023-03-31T11:24:19;3.03;;;1.90;;
1174;SDS011;576;48.418;10.074;2023-03-31T11:27:00;5.70;;;1.97;;
1174;SDS011;576;48.418;10.074;2023-03-31T11:29:36;3.27;;;2.63;;
1174;SDS011;576;48.418;10.074;2023-03-31T11:32:15;2.27;;;1.80;;
1174;SDS011;576;48.418;10.074;2023-03-31T11:35:00;1.83;;;1.57;;
1174;SDS011;576;48.418;10.074;2023-03-31T11:37:46;2.30;;;2.10;;
1174;SDS011;576;48.418;10.074;2023-03-31T11:40:29;3.80;;;1.90;;
1174;SDS011;576;48.418;10.074;2023-03-31T11:43:23;3.67;;;1.80;;
1174;SDS011;576;48.418;10.074;2023-03-31T11:45:57;2.20;;;1.80;;
1174;SDS011;576;48.418;10.074;2023-03-31T11:48:32;5.43;;;1.90;;
1174;SDS011;576;48.418;10.074;2023-03-31T11:51:06;3.83;;;1.90;;
1174;SDS011;576;48.418;10.074;2023-03-31T11:53:40;2.27;;;1.67;;
1174;SDS011;576;48.418;10.074;2023-03-31T11:56:11;4.40;;;2.10;;
1174;SDS011;576;48.418;10.074;2023-03-31T11:58:41;3.23;;;2.00;;
1174;SDS011;576;48.418;10.074;2023-03-31T12:01:15;4.90;;;2.10;;
1174;SDS011;576;48.418;10.074;2023-03-31T12:03:56;3.10;;;1.93;;
1174;SDS011;576;48.418;10.074;2023-03-31T12:06:32;4.33;;;1.97;;
1174;SDS011;576;48.418;10.074;2023-03-31T12:09:10;4.10;;;1.60;;
1174;SDS011;576;48.418;10.074;2023-03-31T12:11:47;2.80;;;1.90;;
1174;SDS011;576;48.418;10.074;2023-03-31T12:14:26;4.37;;;2.33;;
1174;SDS011;576;48.418;10.074;2023-03-31T12:17:01;4.33;;;1.70;;
1174;SDS011;576;48.418;10.074;2023-03-31T12:19:35;2.00;;;1.20;;
1174;SDS011;576;48.418;10.074;2023-03-31T12:22:10;5.90;;;2.30;;
1174;SDS011;576;48.418;10.074;2023-03-31T12:24:43;3.00;;;1.70;;
1174;SDS011;576;48.418;10.074;2023-03-31T12:27:13;2.30;;;1.70;;
1174;SDS011;576;48.418;10.074;2023-03-31T12:29:45;2.37;;;1.20;;
1174;SDS011;576;48.418;10.074;2023-03-31T12:32:21;5.57;;;2.08;;
1174;SDS011;576;48.418;10.074;2023-03-31T12:34:54;3.37;;;2.40;;
1174;SDS011;576;48.418;10.074;2023-03-31T12:37:41;4.30;;;1.20;;
1174;SDS011;576;48.418;10.074;2023-03-31T12:40:36;3.57;;;1.60;;
1174;SDS011;576;48.418;10.074;2023-03-31T12:46:50;3.80;;;2.30;;
1174;SDS011;576;48.418;10.074;2023-03-31T12:49:47;2.87;;;1.97;;
1174;SDS011;576;48.418;10.074;2023-03-31T12:52:31;4.10;;;1.70;;
1174;SDS011;576;48.418;10.074;2023-03-31T13:01:03;4.17;;;1.60;;
1174;SDS011;576;48.418;10.074;2023-03-31T13:03:50;3.17;;;1.33;;
1174;SDS011;576;48.418;10.074;2023-03-31T13:09:44;4.43;;;1.40;;
1174;SDS011;576;48.418;10.074;2023-03-31T13:12:18;2.33;;;1.17;;
1174;SDS011;576;48.418;10.074;2023-03-31T13:14:49;4.40;;;1.70;;
1174;SDS011;576;48.418;10.074;2023-03-31T13:17:21;4.03;;;2.40;;
1174;SDS011;576;48.418;10.074;2023-03-31T13:19:52;1.70;;;0.87;;
1174;SDS011;576;48.418;10.074;2023-03-31T13:22:33;2.00;;;1.13;;
1174;SDS011;576;48.418;10.074;2023-03-31T13:27:53;2.23;;;1.10;;
1174;SDS011;576;48.418;10.074;2023-03-31T13:33:18;2.07;;;1.23;;
1174;SDS011;576;48.418;10.074;2023-03-31T13:35:50;2.50;;;0.90;;
1174;SDS011;576;48.418;10.074;2023-03-31T13:38:28;7.50;;;1.40;;
1174;SDS011;576;48.418;10.074;2023-03-31T13:41:07;1.67;;;1.20;;
1174;SDS011;576;48.418;10.074;2023-03-31T13:43:44;3.20;;;1.00;;
1174;SDS011;576;48.418;10.074;2023-03-31T13:46:47;1.67;;;1.03;;
1174;SDS011;576;48.418;10.074;2023-03-31T13:49:35;3.83;;;1.10;;
1174;SDS011;576;48.418;10.074;2023-03-31T13:52:15;3.90;;;1.00;;
1174;SDS011;576;48.418;10.074;2023-03-31T13:55:16;1.13;;;0.70;;
1174;SDS011;576;48.418;10.074;2023-03-31T13:58:18;2.63;;;0.93;;
1174;SDS011;576;48.418;10.074;2023-03-31T14:01:15;1.10;;;1.00;;
1174;SDS011;576;48.418;10.074;2023-03-31T14:04:01;2.17;;;1.10;;
1174;SDS011;576;48.418;10.074;2023-03-31T14:06:38;2.30;;;0.90;;
1174;SDS011;576;48.418;10.074;2023-03-31T14:09:18;2.13;;;0.93;;
1174;SDS011;576;48.418;10.074;2023-03-31T14:11:54;2.83;;;1.10;;
1174;SDS011;576;48.418;10.074;2023-03-31T14:14:24;2.27;;;1.20;;
1174;SDS011;576;48.418;10.074;2023-03-31T14:16:54;3.33;;;1.20;;
1174;SDS011;576;48.418;10.074;2023-03-31T14:19:33;4.23;;;1.00;;
1174;SDS011;576;48.418;10.074;2023-03-31T14:22:15;1.80;;;0.77;;
1174;SDS011;576;48.418;10.074;2023-03-31T14:24:50;1.33;;;1.07;;
1174;SDS011;576;48.418;10.074;2023-03-31T14:27:33;3.07;;;1.20;;
1174;SDS011;576;48.418;10.074;2023-03-31T14:30:15;2.60;;;1.30;;
1174;SDS011;576;48.418;10.074;2023-03-31T14:32:56;1.83;;;1.20;;
1174;SDS011;576;48.418;10.074;2023-03-31T14:35:35;2.70;;;1.10;;
1174;SDS011;576;48.418;10.074;2023-03-31T14:38:10;2.17;;;1.10;;
1174;SDS011;576;48.418;10.074;2023-03-31T14:40:43;2.77;;;1.30;;
1174;SDS011;576;48.418;10.074;2023-03-31T14:43:19;3.17;;;1.20;;
1174;SDS011;576;48.418;10.074;2023-03-31T14:45:56;3.33;;;1.13;;
1174;SDS011;576;48.418;10.074;2023-03-31T14:48:25;4.23;;;1.13;;
1174;SDS011;576;48.418;10.074;2023-03-31T14:50:55;2.20;;;0.80;;
1174;SDS011;576;48.418;10.074;2023-03-31T14:53:25;4.13;;;1.23;;
1174;SDS011;576;48.418;10.074;2023-03-31T14:55:56;4.07;;;1.87;;
1174;SDS011;576;48.418;10.074;2023-03-31T14:58:31;2.33;;;0.97;;
1174;SDS011;576;48.418;10.074;2023-03-31T15:01:01;2.20;;;1.40;;
1174;SDS011;576;48.418;10.074;2023-03-31T15:03:32;3.30;;;1.00;;
1174;SDS011;576;48.418;10.074;2023-03-31T15:06:02;2.87;;;1.10;;
1174;SDS011;576;48.418;10.074;2023-03-31T15:08:31;2.53;;;1.00;;
1174;SDS011;576;48.418;10.074;2023-03-31T15:11:02;1.93;;;0.93;;
1174;SDS011;576;48.418;10.074;2023-03-31T15:13:41;6.57;;;1.50;;
1174;SDS011;576;48.418;10.074;2023-03-31T15:16:25;5.57;;;1.30;;
1174;SDS011;576;48.418;10.074;2023-03-31T15:18:58;4.67;;;1.43;;
1174;SDS011;576;48.418;10.074;2023-03-31T15:21:30;4.27;;;1.37;;
1174;SDS011;576;48.418;10.074;2023-03-31T15:24:02;4.67;;;1.77;;
1174;SDS011;576;48.418;10.074;2023-03-31T15:26:32;2.47;;;1.13;;
1174;SDS011;576;48.418;10.074;2023-03-31T15:29:25;2.20;;;1.20;;
1174;SDS011;576;48.418;10.074;2023-03-31T15:31:58;3.33;;;1.23;;
1174;SDS011;576;48.418;10.074;2023-03-31T15:34:29;3.27;;;1.40;;
1174;SDS011;576;48.418;10.074;2023-03-31T15:36:59;5.03;;;1.37;;
1174;SDS011;576;48.418;10.074;2023-03-31T15:39:29;5.83;;;1.63;;
1174;SDS011;576;48.418;10.074;2023-03-31T15:41:59;1.83;;;1.07;;
1174;SDS011;576;48.418;10.074;2023-03-31T15:44:35;3.57;;;1.70;;
1174;SDS011;576;48.418;10.074;2023-03-31T15:47:06;3.77;;;1.37;;
1174;SDS011;576;48.418;10.074;2023-03-31T15:49:45;5.57;;;1.63;;
1174;SDS011;576;48.418;10.074;2023-03-31T15:52:29;5.30;;;1.57;;
1174;SDS011;576;48.418;10.074;2023-03-31T15:55:01;4.40;;;1.53;;
1174;SDS011;576;48.418;10.074;2023-03-31T15:57:51;3.97;;;1.30;;
1174;SDS011;576;48.418;10.074;2023-03-31T16:00:40;2.43;;;1.40;;
1174;SDS011;576;48.418;10.074;2023-03-31T16:03:13;5.20;;;1.50;;
1174;SDS011;576;48.418;10.074;2023-03-31T16:05:48;7.27;;;2.00;;
1174;SDS011;576;48.418;10.074;2023-03-31T16:08:22;8.40;;;1.57;;
1174;SDS011;576;48.418;10.074;2023-03-31T16:10:54;3.07;;;1.90;;
1174;SDS011;576;48.418;10.074;2023-03-31T16:13:26;4.60;;;1.50;;
1174;SDS011;576;48.418;10.074;2023-03-31T16:15:58;7.53;;;1.47;;
1174;SDS011;576;48.418;10.074;2023-03-31T16:18:28;13.53;;;1.80;;